createdAt,value
2022-11-18T00:00:57.885Z,83.43
2022-11-18T00:03:24.660Z,82.78
2022-11-18T00:05:56.284Z,83.22
2022-11-18T00:08:24.280Z,82.98
2022-11-18T00:10:51.750Z,82.72
2022-11-18T00:13:37.812Z,82.95
2022-11-18T00:16:07.300Z,82.75
2022-11-18T00:18:34.137Z,82.00
2022-11-18T00:21:06.698Z,82.71
2022-11-18T00:23:33.746Z,82.53
2022-11-18T00:26:09.487Z,82.00
2022-11-18T00:28:36.515Z,81.93
2022-11-18T00:31:12.025Z,81.90
2022-11-18T00:33:39.316Z,82.35
2022-11-18T00:36:11.877Z,82.19
2022-11-18T00:38:39.823Z,81.90
2022-11-18T00:41:13.624Z,82.01
2022-11-18T00:43:40.980Z,81.83
2022-11-18T00:46:10.204Z,81.49
2022-11-18T00:48:37.907Z,81.70
2022-11-18T00:51:22.495Z,81.21
2022-11-18T00:53:49.274Z,81.40
2022-11-18T00:56:16.029Z,81.69
2022-11-18T00:58:42.809Z,81.24
2022-11-18T01:01:09.763Z,81.46
2022-11-18T01:03:36.566Z,81.38
2022-11-18T01:06:03.381Z,81.39
2022-11-18T01:08:30.190Z,81.56
2022-11-18T01:11:16.891Z,81.83
2022-11-18T01:13:43.660Z,81.60
2022-11-18T01:16:10.375Z,81.54
2022-11-18T01:18:37.223Z,81.29
2022-11-18T01:21:04.257Z,81.16
2022-11-18T01:23:31.056Z,81.05
2022-11-18T01:26:07.458Z,81.01
2022-11-18T01:28:34.527Z,80.99
2022-11-18T01:31:09.959Z,80.77
2022-11-18T01:33:36.773Z,80.78
2022-11-18T01:36:04.041Z,80.82
2022-11-18T01:38:30.850Z,80.41
2022-11-18T01:40:57.633Z,80.62
2022-11-18T01:43:24.537Z,80.64
2022-11-18T01:45:53.939Z,80.83
2022-11-18T01:48:23.670Z,80.73
2022-11-18T01:51:16.337Z,80.65
2022-11-18T01:53:51.776Z,80.59
2022-11-18T01:56:23.960Z,80.79
2022-11-18T01:58:56.267Z,80.97
2022-11-18T02:01:23.727Z,80.65
2022-11-18T02:03:53.057Z,80.34
2022-11-18T02:06:20.670Z,80.37
2022-11-18T02:08:48.743Z,80.12
2022-11-18T02:11:34.774Z,80.19
2022-11-18T02:14:04.299Z,80.08
2022-11-18T02:16:52.137Z,79.89
2022-11-18T02:19:24.806Z,79.90
2022-11-18T02:22:08.671Z,79.39
2022-11-18T02:25:06.496Z,79.85
2022-11-18T02:28:05.223Z,79.76
2022-11-18T02:30:44.651Z,79.86
2022-11-18T02:33:16.802Z,79.96
2022-11-18T02:35:57.306Z,79.55
2022-11-18T02:38:36.824Z,79.74
2022-11-18T02:41:09.692Z,79.19
2022-11-18T02:43:52.707Z,78.87
2022-11-18T02:46:26.536Z,79.10
2022-11-18T02:48:54.320Z,79.55
2022-11-18T02:51:26.024Z,79.42
2022-11-18T02:53:57.152Z,79.26
2022-11-18T02:56:26.060Z,79.18
2022-11-18T02:58:52.874Z,79.01
2022-11-18T03:01:31.298Z,78.86
2022-11-18T03:03:58.272Z,79.06
2022-11-18T03:06:31.621Z,78.99
2022-11-18T03:09:07.321Z,79.16
2022-11-18T03:11:59.994Z,79.08
2022-11-18T03:14:56.993Z,78.99
2022-11-18T03:17:31.149Z,78.81
2022-11-18T03:20:20.393Z,79.14
2022-11-18T03:22:52.832Z,78.98
2022-11-18T03:25:42.093Z,79.09
2022-11-18T03:28:19.525Z,79.11
2022-11-18T03:30:54.163Z,79.11
2022-11-18T03:33:26.526Z,79.04
2022-11-18T03:35:54.703Z,78.86
2022-11-18T03:38:29.296Z,79.14
2022-11-18T03:41:03.651Z,78.88
2022-11-18T03:43:37.432Z,78.83
2022-11-18T03:46:10.963Z,79.13
2022-11-18T03:48:48.126Z,79.05
2022-11-18T03:51:18.730Z,79.30
2022-11-18T03:53:54.075Z,79.12
2022-11-18T03:56:29.260Z,79.15
2022-11-18T03:59:22.393Z,78.86
2022-11-18T04:01:57.864Z,78.89
2022-11-18T04:04:27.197Z,78.87
2022-11-18T04:07:10.157Z,78.92
2022-11-18T04:10:13.512Z,78.79
2022-11-18T04:12:50.645Z,78.37
2022-11-18T04:15:17.648Z,78.56
2022-11-18T04:17:44.441Z,78.53
2022-11-18T04:20:18.680Z,78.59
2022-11-18T04:22:45.913Z,78.44
2022-11-18T04:25:13.312Z,78.23
2022-11-18T04:27:40.263Z,78.51
2022-11-18T04:30:08.306Z,78.45
2022-11-18T04:32:35.558Z,78.57
2022-11-18T04:35:02.489Z,78.48
2022-11-18T04:37:29.279Z,78.61
2022-11-18T04:39:56.027Z,78.46
2022-11-18T04:42:22.916Z,78.37
2022-11-18T04:44:49.654Z,78.25
2022-11-18T04:47:16.483Z,78.19
2022-11-18T04:49:43.304Z,78.06
2022-11-18T04:52:10.058Z,78.31
2022-11-18T04:54:36.923Z,78.28
2022-11-18T04:57:04.149Z,78.55
2022-11-18T04:59:30.999Z,78.46
2022-11-18T05:01:59.477Z,78.30
2022-11-18T05:04:30.102Z,78.35
2022-11-18T05:06:57.922Z,78.53
2022-11-18T05:09:30.431Z,78.67
2022-11-18T05:12:17.621Z,78.65
2022-11-18T05:14:49.580Z,78.43
2022-11-18T05:17:17.663Z,78.39
2022-11-18T05:19:44.486Z,78.34
2022-11-18T05:22:11.307Z,78.27
2022-11-18T05:24:38.113Z,78.39
2022-11-18T05:27:04.878Z,78.41
2022-11-18T05:29:31.804Z,78.35
2022-11-18T05:31:58.536Z,78.45
2022-11-18T05:34:25.423Z,78.35
2022-11-18T05:36:52.215Z,78.24
2022-11-18T05:39:19.307Z,78.34
2022-11-18T05:42:05.001Z,78.36
2022-11-18T05:44:31.777Z,78.27
2022-11-18T05:46:58.595Z,78.27
2022-11-18T05:49:25.720Z,78.14
2022-11-18T05:51:52.513Z,78.51
2022-11-18T05:54:21.087Z,78.54
2022-11-18T05:56:48.023Z,78.20
2022-11-18T05:59:15.744Z,78.23
2022-11-18T06:01:55.685Z,78.17
2022-11-18T06:04:39.539Z,78.36
2022-11-18T06:07:32.505Z,78.70
2022-11-18T06:10:05.238Z,78.81
2022-11-18T06:12:37.399Z,78.87
2022-11-18T06:15:12.167Z,78.80
2022-11-18T06:18:02.252Z,78.74
2022-11-18T06:20:29.361Z,78.46
2022-11-18T06:22:58.307Z,78.23
2022-11-18T06:25:29.708Z,78.56
2022-11-18T06:27:59.297Z,78.35
2022-11-18T06:30:26.097Z,78.26
2022-11-18T06:32:52.914Z,78.63
2022-11-18T06:35:19.781Z,78.39
2022-11-18T06:37:47.390Z,78.14
2022-11-18T06:40:14.306Z,78.40
2022-11-18T06:42:59.809Z,78.20
2022-11-18T06:45:26.683Z,78.42
2022-11-18T06:47:57.530Z,78.59
2022-11-18T06:50:24.617Z,78.39
2022-11-18T06:52:51.461Z,78.24
2022-11-18T06:55:18.299Z,78.37
2022-11-18T06:57:45.129Z,78.41
2022-11-18T07:00:12.674Z,78.54
2022-11-18T07:02:39.427Z,78.90
2022-11-18T07:05:06.790Z,78.99
2022-11-18T07:07:41.697Z,78.90
2022-11-18T07:10:09.351Z,78.88
2022-11-18T07:12:36.212Z,79.20
2022-11-18T07:15:03.180Z,79.06
2022-11-18T07:17:31.350Z,79.06
2022-11-18T07:19:58.171Z,79.13
2022-11-18T07:22:25.010Z,78.91
2022-11-18T07:24:51.778Z,79.19
2022-11-18T07:27:18.520Z,79.22
2022-11-18T07:29:45.339Z,79.16
2022-11-18T07:32:12.104Z,79.10
2022-11-18T07:34:38.957Z,79.15
2022-11-18T07:37:05.699Z,79.65
2022-11-18T07:39:32.452Z,79.91
2022-11-18T07:41:59.423Z,79.96
2022-11-18T07:44:26.201Z,80.09
2022-11-18T07:46:52.964Z,80.68
2022-11-18T07:49:20.032Z,81.65
2022-11-18T07:51:46.932Z,81.41
2022-11-18T07:54:16.628Z,81.22
2022-11-18T07:56:43.594Z,80.82
2022-11-18T07:59:10.334Z,80.73
2022-11-18T08:01:37.282Z,81.01
2022-11-18T08:04:05.800Z,80.94
2022-11-18T08:06:34.131Z,80.79
2022-11-18T08:09:01.297Z,80.87
2022-11-18T08:11:28.081Z,80.56
2022-11-18T08:13:54.907Z,80.62
2022-11-18T08:16:23.881Z,80.33
2022-11-18T08:18:51.587Z,80.41
2022-11-18T08:21:20.225Z,80.04
2022-11-18T08:23:55.130Z,80.46
2022-11-18T08:26:22.769Z,80.71
2022-11-18T08:28:49.914Z,80.59
2022-11-18T08:31:22.435Z,80.54
2022-11-18T08:33:49.273Z,80.54
2022-11-18T08:36:20.222Z,80.75
2022-11-18T08:38:47.058Z,81.20
2022-11-18T08:41:20.257Z,82.09
2022-11-18T08:43:47.161Z,82.43
2022-11-18T08:46:13.886Z,82.24
2022-11-18T08:48:40.680Z,82.20
2022-11-18T08:51:11.480Z,82.42
2022-11-18T08:53:38.290Z,82.58
2022-11-18T08:56:05.521Z,82.54
2022-11-18T08:58:32.544Z,82.51
2022-11-18T09:01:04.895Z,82.23
2022-11-18T09:03:32.176Z,82.22
2022-11-18T09:06:14.100Z,82.27
2022-11-18T09:08:41.762Z,82.13
2022-11-18T09:11:21.019Z,82.79
2022-11-18T09:14:32.773Z,82.69
2022-11-18T09:16:35.969Z,82.33
2022-11-18T09:19:24.457Z,82.81
2022-11-18T09:21:50.045Z,83.33
2022-11-18T09:24:17.335Z,83.09
2022-11-18T09:26:44.574Z,82.69
2022-11-18T09:29:14.181Z,82.37
2022-11-18T09:31:40.906Z,82.18
2022-11-18T09:34:10.360Z,83.17
2022-11-18T09:36:37.578Z,83.81
2022-11-18T09:39:04.800Z,83.34
2022-11-18T09:41:50.576Z,83.33
2022-11-18T09:44:42.619Z,83.98
2022-11-18T09:47:12.299Z,84.46
2022-11-18T09:49:42.388Z,85.15
2022-11-18T09:52:22.118Z,84.07
2022-11-18T09:54:49.304Z,84.07
2022-11-18T09:57:20.053Z,84.42
2022-11-18T09:59:46.995Z,84.26
2022-11-18T10:02:13.824Z,83.85
2022-11-18T10:04:40.785Z,82.33
2022-11-18T10:07:20.936Z,82.90
2022-11-18T10:09:51.872Z,83.32
2022-11-18T10:12:27.783Z,83.13
2022-11-18T10:15:06.473Z,82.72
2022-11-18T10:17:43.492Z,82.70
2022-11-18T10:20:28.959Z,81.93
2022-11-18T10:23:05.486Z,81.26
2022-11-18T10:25:32.270Z,81.40
2022-11-18T10:28:14.099Z,81.97
2022-11-18T10:30:41.088Z,81.35
2022-11-18T10:33:23.126Z,81.63
2022-11-18T10:35:50.567Z,80.39
2022-11-18T10:38:18.933Z,80.54
2022-11-18T10:41:01.631Z,80.58
2022-11-18T10:43:44.881Z,81.13
2022-11-18T10:46:39.250Z,81.11
2022-11-18T10:49:08.861Z,80.47
2022-11-18T10:51:43.170Z,80.55
2022-11-18T10:54:22.667Z,80.64
2022-11-18T10:57:11.132Z,79.05
2022-11-18T10:59:47.084Z,81.28
2022-11-18T11:02:19.640Z,82.00
2022-11-18T11:04:49.114Z,81.14
2022-11-18T11:07:35.174Z,81.51
2022-11-18T11:10:04.759Z,82.47
2022-11-18T11:12:47.287Z,82.25
2022-11-18T11:15:19.544Z,81.80
2022-11-18T11:18:11.089Z,81.85
2022-11-18T11:20:38.951Z,81.62
2022-11-18T11:23:22.034Z,81.36
2022-11-18T11:29:19.061Z,80.36
2022-11-18T11:32:11.040Z,81.00
2022-11-18T11:34:55.330Z,80.14
2022-11-18T11:37:24.792Z,80.25
2022-11-18T11:39:51.502Z,80.76
2022-11-18T11:42:24.234Z,81.46
2022-11-18T11:45:19.186Z,81.85
2022-11-18T11:48:23.328Z,81.29
2022-11-18T11:51:03.487Z,81.10
2022-11-18T11:53:41.571Z,81.02
2022-11-18T11:56:25.854Z,80.46
2022-11-18T11:59:11.545Z,80.37
2022-11-18T12:01:47.180Z,79.42
2022-11-18T12:04:29.167Z,80.44
2022-11-18T12:06:58.044Z,80.59
2022-11-18T12:09:34.017Z,81.26
2022-11-18T12:12:36.700Z,80.67
2022-11-18T12:15:31.165Z,79.89
2022-11-18T12:18:09.110Z,81.05
2022-11-18T12:20:40.537Z,80.54
2022-11-18T12:23:10.700Z,80.64
2022-11-18T12:26:10.347Z,79.87
2022-11-18T12:28:43.418Z,79.32
2022-11-18T12:31:19.161Z,78.64
2022-11-18T12:33:48.711Z,79.94
2022-11-18T12:36:36.263Z,79.03
2022-11-18T12:39:26.352Z,78.00
2022-11-18T12:42:11.683Z,79.51
2022-11-18T12:44:40.273Z,79.13
2022-11-18T12:47:14.664Z,78.62
2022-11-18T12:49:44.209Z,79.06
2022-11-18T12:52:29.248Z,77.93
2022-11-18T12:55:01.320Z,79.55
2022-11-18T12:57:33.998Z,78.54
2022-11-18T13:00:29.832Z,77.97
2022-11-18T13:02:59.503Z,79.17
2022-11-18T13:05:32.971Z,79.42
2022-11-18T13:08:14.183Z,77.60
2022-11-18T13:11:13.370Z,78.27
2022-11-18T13:13:41.918Z,78.74
2022-11-18T13:16:42.162Z,78.23
2022-11-18T13:19:09.835Z,79.08
2022-11-18T13:21:55.329Z,78.92
2022-11-18T13:24:23.206Z,79.16
2022-11-18T13:26:57.637Z,78.11
2022-11-18T13:29:44.148Z,78.24
2022-11-18T13:32:27.499Z,79.49
2022-11-18T13:34:57.134Z,79.25
2022-11-18T13:37:34.291Z,80.87
2022-11-18T13:40:01.288Z,80.32
2022-11-18T13:42:31.880Z,79.29
2022-11-18T13:45:03.333Z,79.16
2022-11-18T13:47:45.908Z,78.25
2022-11-18T13:50:15.712Z,79.53
2022-11-18T13:53:08.486Z,79.11
2022-11-18T13:55:44.002Z,79.15
2022-11-18T13:58:19.530Z,78.90
2022-11-18T14:00:58.174Z,79.60
2022-11-18T14:03:30.287Z,79.23
2022-11-18T14:05:58.608Z,79.59
2022-11-18T14:08:31.539Z,79.48
2022-11-18T14:10:58.895Z,78.03
2022-11-18T14:13:27.663Z,79.17
2022-11-18T14:15:57.618Z,77.89
2022-11-18T14:18:38.269Z,78.99
2022-11-18T14:21:06.011Z,79.14
2022-11-18T14:23:37.297Z,79.14
2022-11-18T14:26:06.402Z,79.15
2022-11-18T14:28:37.185Z,78.31
2022-11-18T14:31:21.704Z,77.50
2022-11-18T14:34:13.407Z,79.09
2022-11-18T14:36:40.964Z,79.45
2022-11-18T14:39:34.361Z,80.02
2022-11-18T14:42:01.853Z,80.21
2022-11-18T14:44:28.986Z,78.85
2022-11-18T14:47:00.501Z,79.53
2022-11-18T14:49:30.862Z,78.71
2022-11-18T14:51:57.625Z,80.00
2022-11-18T14:54:27.604Z,79.61
2022-11-18T14:57:05.756Z,79.05
2022-11-18T14:59:32.623Z,79.07
2022-11-18T15:02:06.645Z,79.63
2022-11-18T15:04:33.685Z,79.02
2022-11-18T15:07:00.513Z,80.04
2022-11-18T15:09:27.338Z,80.08
2022-11-18T15:11:54.381Z,79.43
2022-11-18T15:14:21.807Z,80.27
2022-11-18T15:16:48.827Z,81.05
2022-11-18T15:19:16.256Z,81.16
2022-11-18T15:21:45.442Z,81.12
2022-11-18T15:24:12.401Z,82.05
2022-11-18T15:26:41.901Z,81.17
2022-11-18T15:29:24.388Z,81.01
2022-11-18T15:31:51.956Z,81.38
2022-11-18T15:34:20.628Z,81.59
2022-11-18T15:36:47.787Z,81.06
2022-11-18T15:39:14.652Z,81.61
2022-11-18T15:41:43.012Z,81.26
2022-11-18T15:44:10.857Z,81.25
2022-11-18T15:46:37.677Z,82.20
2022-11-18T15:49:04.695Z,83.81
2022-11-18T15:51:33.322Z,83.07
2022-11-18T15:54:00.182Z,83.70
2022-11-18T15:56:31.769Z,84.18
2022-11-18T15:59:07.373Z,84.44
2022-11-18T16:01:39.214Z,84.65
2022-11-18T16:04:08.176Z,83.85
2022-11-18T16:06:35.576Z,83.92
2022-11-18T16:09:02.744Z,83.90
2022-11-18T16:11:48.332Z,82.61
2022-11-18T16:14:18.163Z,82.35
2022-11-18T16:16:47.349Z,81.43
2022-11-18T16:19:16.890Z,81.06
2022-11-18T16:21:47.238Z,82.28
2022-11-18T16:24:17.342Z,81.19
2022-11-18T16:26:44.395Z,82.47
2022-11-18T16:29:12.568Z,82.30
2022-11-18T16:31:43.879Z,82.20
2022-11-18T16:34:22.104Z,81.72
2022-11-18T16:36:57.048Z,82.83
2022-11-18T16:39:26.296Z,82.24
2022-11-18T16:42:03.832Z,83.08
2022-11-18T16:44:35.176Z,82.96
2022-11-18T16:47:02.234Z,82.95
2022-11-18T16:49:29.055Z,83.01
2022-11-18T16:51:56.998Z,83.35
2022-11-18T16:54:31.439Z,83.67
2022-11-18T16:56:59.478Z,83.14
2022-11-18T16:59:28.462Z,83.48
2022-11-18T17:01:56.835Z,81.71
2022-11-18T17:04:25.622Z,82.29
2022-11-18T17:06:53.750Z,82.23
2022-11-18T17:09:23.964Z,81.91
2022-11-18T17:11:52.632Z,81.19
2022-11-18T17:14:22.288Z,81.80
2022-11-18T17:16:50.921Z,81.40
2022-11-18T17:19:21.656Z,81.55
2022-11-18T17:21:49.612Z,80.24
2022-11-18T17:24:19.786Z,79.92
2022-11-18T17:26:48.380Z,79.20
2022-11-18T17:29:15.514Z,79.93
2022-11-18T17:31:42.860Z,79.56
2022-11-18T17:34:12.084Z,78.92
2022-11-18T17:36:39.000Z,78.66
2022-11-18T17:39:05.836Z,78.12
2022-11-18T17:41:51.490Z,78.15
2022-11-18T17:44:19.052Z,79.07
2022-11-18T17:46:47.296Z,79.16
2022-11-18T17:49:18.031Z,79.00
2022-11-18T17:51:48.029Z,78.88
2022-11-18T17:54:15.105Z,79.45
2022-11-18T17:56:42.153Z,79.64
2022-11-18T17:59:08.987Z,78.85
2022-11-18T18:01:35.894Z,78.69
2022-11-18T18:04:03.343Z,79.18
2022-11-18T18:06:30.089Z,78.71
2022-11-18T18:08:58.330Z,79.30
2022-11-18T18:11:26.089Z,79.08
2022-11-18T18:14:11.430Z,78.77
2022-11-18T18:16:47.255Z,78.35
2022-11-18T18:19:20.619Z,79.03
2022-11-18T18:21:48.161Z,79.15
2022-11-18T18:24:17.563Z,79.40
2022-11-18T18:26:44.607Z,79.14
2022-11-18T18:29:12.743Z,78.92
2022-11-18T18:31:39.687Z,77.52
2022-11-18T18:34:06.675Z,77.48
2022-11-18T18:36:34.091Z,77.68
2022-11-18T18:39:02.291Z,77.67
2022-11-18T18:41:29.126Z,77.46
2022-11-18T18:43:56.746Z,76.61
2022-11-18T18:46:36.612Z,77.53
2022-11-18T18:49:12.090Z,77.90
2022-11-18T18:51:41.423Z,77.80
2022-11-18T18:54:11.313Z,78.45
2022-11-18T18:56:41.140Z,77.81
2022-11-18T18:59:08.829Z,77.73
2022-11-18T19:01:36.721Z,77.82
2022-11-18T19:04:06.345Z,77.92
2022-11-18T19:09:27.026Z,77.61
2022-11-18T19:12:12.982Z,77.81
2022-11-18T19:14:39.921Z,77.50
2022-11-18T19:17:11.110Z,77.52
2022-11-18T19:19:59.728Z,77.81
2022-11-18T19:22:29.689Z,78.10
2022-11-18T19:24:56.688Z,78.75
2022-11-18T19:27:23.952Z,79.01
2022-11-18T19:29:50.747Z,79.38
2022-11-18T19:32:17.930Z,79.20
2022-11-18T19:34:44.859Z,78.61
2022-11-18T19:37:12.297Z,78.98
2022-11-18T19:39:39.237Z,78.34
2022-11-18T19:42:06.082Z,78.73
2022-11-18T19:44:33.469Z,78.68
2022-11-18T19:47:00.876Z,78.41
2022-11-18T19:49:28.094Z,77.92
2022-11-18T19:51:55.150Z,78.53
2022-11-18T19:54:22.056Z,77.86
2022-11-18T19:56:48.773Z,77.90
2022-11-18T19:59:16.235Z,76.70
2022-11-18T20:01:44.454Z,77.01
2022-11-18T20:04:12.172Z,76.91
2022-11-18T20:06:40.337Z,76.37
2022-11-18T20:09:08.654Z,76.69
2022-11-18T20:11:36.927Z,77.16
2022-11-18T20:14:04.518Z,77.29
2022-11-18T20:16:33.861Z,77.38
2022-11-18T20:19:08.033Z,77.12
2022-11-18T20:21:39.422Z,77.36
2022-11-18T20:24:07.985Z,77.92
2022-11-18T20:26:39.558Z,77.57
2022-11-18T20:29:09.262Z,78.06
2022-11-18T20:31:37.207Z,78.59
2022-11-18T20:34:05.207Z,78.29
2022-11-18T20:36:34.873Z,78.21
2022-11-18T20:39:06.960Z,77.91
2022-11-18T20:41:36.302Z,77.17
2022-11-18T20:44:04.083Z,77.67
2022-11-18T20:46:31.058Z,77.53
2022-11-18T20:48:57.857Z,77.60
2022-11-18T20:51:26.563Z,77.46
2022-11-18T20:53:55.509Z,77.58
2022-11-18T20:56:26.739Z,77.79
2022-11-18T20:58:54.195Z,77.22
2022-11-18T21:01:23.955Z,77.58
2022-11-18T21:03:53.210Z,77.72
2022-11-18T21:06:22.363Z,77.72
2022-11-18T21:08:54.102Z,78.11
2022-11-18T21:11:20.881Z,77.80
2022-11-18T21:14:06.081Z,77.81
2022-11-18T21:16:33.025Z,77.96
2022-11-18T21:19:00.227Z,77.50
2022-11-18T21:21:46.131Z,77.63
2022-11-18T21:24:24.168Z,77.42
2022-11-18T21:26:54.763Z,77.87
2022-11-18T21:29:23.513Z,78.14
2022-11-18T21:31:50.747Z,77.69
2022-11-18T21:34:18.391Z,77.95
2022-11-18T21:36:50.380Z,77.44
2022-11-18T21:39:21.937Z,78.12
2022-11-18T21:41:54.904Z,78.64
2022-11-18T21:44:22.425Z,77.91
2022-11-18T21:46:49.231Z,77.35
2022-11-18T21:49:16.450Z,77.88
2022-11-18T21:51:44.085Z,77.38
2022-11-18T21:54:12.608Z,76.69
2022-11-18T21:56:39.508Z,76.91
2022-11-18T21:59:07.789Z,76.41
2022-11-18T22:01:35.034Z,76.69
2022-11-18T22:04:04.347Z,76.82
2022-11-18T22:06:33.625Z,76.56
2022-11-18T22:09:01.728Z,76.76
2022-11-18T22:11:28.799Z,76.71
2022-11-18T22:13:55.934Z,76.58
2022-11-18T22:16:24.764Z,76.17
2022-11-18T22:18:58.216Z,76.34
2022-11-18T22:21:28.083Z,76.77
2022-11-18T22:24:00.246Z,76.53
2022-11-18T22:26:27.877Z,76.44
2022-11-18T22:28:57.044Z,75.96
2022-11-18T22:31:25.594Z,75.66
2022-11-18T22:33:53.507Z,75.84
2022-11-18T22:36:22.629Z,76.19
2022-11-18T22:38:49.903Z,75.96
2022-11-18T22:41:39.377Z,75.48
2022-11-18T22:44:08.423Z,76.05
2022-11-18T22:46:37.105Z,75.72
2022-11-18T22:49:05.216Z,75.53
2022-11-18T22:51:32.523Z,75.10
2022-11-18T22:54:30.739Z,75.14
2022-11-18T22:56:46.414Z,74.58
2022-11-18T22:59:13.716Z,74.11
2022-11-18T23:01:40.683Z,73.77
2022-11-18T23:04:07.792Z,73.57
2022-11-18T23:06:34.731Z,73.65
2022-11-18T23:09:01.867Z,74.08
2022-11-18T23:11:47.702Z,73.20
2022-11-18T23:14:14.766Z,73.78
2022-11-18T23:16:43.162Z,73.38
2022-11-18T23:19:12.491Z,73.92
2022-11-18T23:21:40.227Z,72.83
2022-11-18T23:24:07.873Z,73.29
2022-11-18T23:26:34.616Z,72.79
2022-11-18T23:29:01.591Z,72.89
2022-11-18T23:31:29.035Z,72.51
2022-11-18T23:33:57.982Z,72.33
2022-11-18T23:36:25.774Z,72.51
2022-11-18T23:38:54.845Z,72.55
2022-11-18T23:41:22.387Z,72.21
2022-11-18T23:43:49.797Z,72.55
2022-11-18T23:46:18.064Z,72.66
2022-11-18T23:48:46.046Z,73.06
2022-11-18T23:51:21.787Z,72.66
2022-11-18T23:53:53.011Z,72.02
2022-11-18T23:56:20.754Z,72.07
2022-11-18T23:58:49.733Z,71.61
